Time;durP1;ratioP1;P1;durP2;ratioP2;P2;SDS_P1;SDS_P2;PMS_P1;PMS_P2;Temp;Humidity;BMP_temperature;BMP_pressure;BME280_temperature;BME280_humidity;BME280_pressure;Samples;Min_cycle;Max_cycle;Signal;HPM_P1;HPM_P2
2022/09/02 00:03:33;;;;;;;5.15;3.58;;;11.30;99.90;;;;;;9596129;30;20042;-89
2022/09/02 00:08:34;;;;;;;4.40;3.10;;;11.00;99.90;;;;;;9595563;30;20093;-89
2022/09/02 00:13:36;;;;;;;4.95;2.72;;;10.60;99.90;;;;;;9586871;30;20130;-88
2022/09/02 00:18:38;;;;;;;6.13;3.10;;;10.40;99.90;;;;;;9596088;30;20055;-89
2022/09/02 00:23:41;;;;;;;5.77;3.60;;;10.20;99.90;;;;;;9595327;30;20065;-89
2022/09/02 00:28:42;;;;;;;4.87;3.30;;;10.10;99.90;;;;;;9586469;30;20041;-89
2022/09/02 00:33:43;;;;;;;3.90;3.03;;;9.90;99.90;;;;;;9594126;30;20031;-89
2022/09/02 00:38:43;;;;;;;4.43;3.50;;;9.80;99.90;;;;;;9592644;30;20043;-88
2022/09/02 00:43:54;;;;;;;4.20;3.00;;;9.80;99.90;;;;;;9591673;30;20047;-89
2022/09/02 00:48:59;;;;;;;6.77;3.70;;;9.70;99.90;;;;;;9594583;30;20054;-88
2022/09/02 00:54:00;;;;;;;8.38;3.63;;;9.60;99.90;;;;;;9595115;30;20477;-87
2022/09/02 00:59:01;;;;;;;3.47;2.67;;;9.60;99.90;;;;;;9587863;30;20138;-89
2022/09/02 01:04:02;;;;;;;5.93;3.30;;;9.70;99.90;;;;;;9593982;30;20035;-89
2022/09/02 01:09:10;;;;;;;4.43;3.07;;;9.90;99.90;;;;;;9594581;30;20489;-90
2022/09/02 01:14:12;;;;;;;7.07;3.07;;;9.90;99.90;;;;;;9589290;30;20034;-90
2022/09/02 01:19:22;;;;;;;3.50;2.53;;;10.00;99.90;;;;;;9592925;30;20043;-88
2022/09/02 01:24:28;;;;;;;4.03;2.83;;;10.10;99.90;;;;;;9587573;30;20042;-89
2022/09/02 01:29:29;;;;;;;3.58;2.30;;;10.20;99.90;;;;;;9604015;30;20121;-90
2022/09/02 01:34:29;;;;;;;5.23;2.80;;;10.20;99.90;;;;;;9607603;30;20046;-87
2022/09/02 01:39:30;;;;;;;5.43;2.90;;;10.30;99.90;;;;;;9593560;30;20134;-88
2022/09/02 01:44:32;;;;;;;4.30;2.57;;;10.20;99.90;;;;;;9589817;30;20057;-88
2022/09/02 01:49:33;;;;;;;5.60;3.00;;;10.00;99.90;;;;;;9603394;30;20045;-88
2022/09/02 01:54:33;;;;;;;4.73;2.80;;;10.00;99.90;;;;;;9589723;30;20046;-89
2022/09/02 01:59:34;;;;;;;6.03;3.00;;;10.10;99.90;;;;;;9590231;30;20054;-87
2022/09/02 02:04:34;;;;;;;3.37;2.47;;;10.10;99.90;;;;;;9593291;30;20049;-88
2022/09/02 02:09:35;;;;;;;4.80;2.97;;;10.00;99.90;;;;;;9605601;30;20098;-89
2022/09/02 02:14:36;;;;;;;4.47;3.00;;;10.00;99.90;;;;;;9589927;30;20023;-89
2022/09/02 02:19:37;;;;;;;4.83;2.70;;;10.10;99.90;;;;;;9596606;30;20069;-88
2022/09/02 02:24:38;;;;;;;6.73;2.97;;;10.10;99.90;;;;;;9598045;30;20035;-88
2022/09/02 02:29:38;;;;;;;3.57;2.53;;;10.20;99.90;;;;;;9599694;30;20039;-89
2022/09/02 02:34:39;;;;;;;4.63;3.20;;;10.10;99.90;;;;;;9597166;30;20138;-90
2022/09/02 02:39:41;;;;;;;7.93;3.50;;;10.10;99.90;;;;;;9598812;30;20111;-89
2022/09/02 02:44:41;;;;;;;8.50;3.87;;;10.00;99.90;;;;;;9597062;30;20805;-89
2022/09/02 02:49:43;;;;;;;6.67;3.43;;;10.00;99.90;;;;;;9595987;30;20043;-88
2022/09/02 02:54:43;;;;;;;5.90;3.50;;;9.90;99.90;;;;;;9598501;30;20532;-88
2022/09/02 02:59:44;;;;;;;5.07;3.57;;;9.90;99.90;;;;;;9596636;30;20043;-88
2022/09/02 03:04:45;;;;;;;6.27;4.10;;;9.90;99.90;;;;;;9595627;30;20042;-88
2022/09/02 03:09:45;;;;;;;9.97;3.67;;;9.90;99.90;;;;;;9610985;30;20066;-88
2022/09/02 03:14:46;;;;;;;4.83;3.10;;;9.80;99.90;;;;;;9595819;30;20047;-89
2022/09/02 03:19:47;;;;;;;7.13;4.03;;;9.70;99.90;;;;;;9597344;30;20120;-88
2022/09/02 03:24:47;;;;;;;5.80;3.83;;;9.70;99.90;;;;;;9596497;30;20067;-89
2022/09/02 03:29:48;;;;;;;6.53;4.10;;;9.60;99.90;;;;;;9596699;30;20035;-89
2022/09/02 03:34:48;;;;;;;7.67;3.87;;;9.50;99.90;;;;;;9594365;30;20043;-88
2022/09/02 03:39:49;;;;;;;8.83;4.40;;;9.50;99.90;;;;;;9595156;30;20255;-88
2022/09/02 03:44:50;;;;;;;7.93;4.20;;;9.50;99.90;;;;;;9594685;30;20039;-88
2022/09/02 03:49:51;;;;;;;6.80;3.47;;;9.50;99.90;;;;;;9593953;30;20050;-88
2022/09/02 03:54:52;;;;;;;8.33;3.80;;;9.50;99.90;;;;;;9595992;30;20051;-90
2022/09/02 03:59:53;;;;;;;8.83;4.57;;;9.50;99.90;;;;;;9593461;30;20085;-88
2022/09/02 04:04:54;;;;;;;6.43;4.10;;;9.40;99.90;;;;;;9595235;30;20462;-90
2022/09/02 04:09:55;;;;;;;7.87;4.30;;;9.40;99.90;;;;;;9594525;30;20039;-89
2022/09/02 04:14:55;;;;;;;8.83;4.13;;;9.40;99.90;;;;;;9592523;30;20050;-88
2022/09/02 04:19:56;;;;;;;8.27;4.23;;;9.50;99.90;;;;;;9589431;30;20114;-89
2022/09/02 04:24:56;;;;;;;7.70;3.87;;;9.40;99.90;;;;;;9598652;30;20043;-89
2022/09/02 04:29:58;;;;;;;9.10;4.10;;;9.40;99.90;;;;;;9585299;30;20043;-88
2022/09/02 04:35:00;;;;;;;8.23;4.20;;;9.40;99.90;;;;;;9583889;30;20115;-89
2022/09/02 04:40:01;;;;;;;6.70;3.80;;;9.50;99.90;;;;;;9578930;30;20102;-88
2022/09/02 04:45:02;;;;;;;8.77;4.47;;;9.60;99.90;;;;;;9579067;30;20122;-89
2022/09/02 04:50:03;;;;;;;5.70;3.70;;;9.70;99.90;;;;;;9603109;30;20051;-89
2022/09/02 04:55:05;;;;;;;6.93;4.27;;;9.80;99.90;;;;;;9592499;30;20051;-86
2022/09/02 05:00:07;;;;;;;7.10;3.67;;;9.90;99.90;;;;;;9595910;30;20043;-88
2022/09/02 05:05:08;;;;;;;6.50;3.80;;;10.00;99.90;;;;;;9590123;30;20528;-87
2022/09/02 05:10:11;;;;;;;6.40;3.80;;;10.10;99.90;;;;;;9603032;30;20121;-87
2022/09/02 05:15:12;;;;;;;6.37;3.80;;;10.20;99.90;;;;;;9602859;30;20485;-87
2022/09/02 05:20:13;;;;;;;5.93;4.00;;;10.30;99.90;;;;;;9602569;30;20062;-88
2022/09/02 05:25:13;;;;;;;6.17;3.03;;;10.40;99.90;;;;;;9605267;30;20045;-88
2022/09/02 05:30:14;;;;;;;5.87;2.93;;;10.50;99.90;;;;;;9602900;30;20039;-87
2022/09/02 05:35:15;;;;;;;4.73;2.40;;;10.70;99.90;;;;;;9605575;30;20054;-88
2022/09/02 05:40:16;;;;;;;4.70;2.70;;;10.80;99.90;;;;;;9590858;30;20042;-88
2022/09/02 05:45:17;;;;;;;4.22;2.67;;;11.00;99.90;;;;;;9605552;30;20476;-89
2022/09/02 05:50:19;;;;;;;3.90;2.50;;;11.20;99.90;;;;;;9606030;30;20118;-89
2022/09/02 05:55:19;;;;;;;5.07;2.42;;;11.40;99.90;;;;;;9593682;30;20058;-87
2022/09/02 06:00:20;;;;;;;4.15;2.60;;;11.60;99.90;;;;;;9607612;30;20053;-88
2022/09/02 06:05:21;;;;;;;4.00;2.88;;;11.80;99.90;;;;;;9591891;30;20039;-88
2022/09/02 06:10:21;;;;;;;6.40;2.55;;;12.00;99.90;;;;;;9592465;30;20137;-89
2022/09/02 06:15:22;;;;;;;5.75;2.60;;;12.30;99.90;;;;;;9592302;30;20628;-87
2022/09/02 06:20:23;;;;;;;8.20;3.08;;;12.50;99.90;;;;;;9597743;30;20057;-88
2022/09/02 06:25:23;;;;;;;9.82;3.22;;;12.80;99.90;;;;;;9608587;30;20042;-87
2022/09/02 06:30:24;;;;;;;7.78;3.20;;;13.00;99.90;;;;;;9591671;30;20117;-87
2022/09/02 06:35:24;;;;;;;4.10;2.83;;;13.10;99.90;;;;;;9602935;30;20042;-87
2022/09/02 06:40:25;;;;;;;6.85;2.78;;;13.30;99.90;;;;;;9605337;30;20047;-87
2022/09/02 06:45:26;;;;;;;7.68;3.20;;;13.60;99.90;;;;;;9593442;30;20035;-87
2022/09/02 06:50:26;;;;;;;5.30;2.60;;;13.90;99.90;;;;;;9606906;30;20039;-88
2022/09/02 06:55:27;;;;;;;5.38;2.42;;;14.10;99.90;;;;;;9590569;30;20476;-87
2022/09/02 07:00:27;;;;;;;7.38;2.80;;;14.30;99.90;;;;;;9590902;30;20035;-88
2022/09/02 07:05:28;;;;;;;5.88;2.45;;;14.60;99.90;;;;;;9592354;30;20028;-87
2022/09/02 07:10:29;;;;;;;12.32;4.60;;;14.90;99.90;;;;;;9597302;30;20070;-88
2022/09/02 07:15:29;;;;;;;5.35;2.90;;;15.20;99.90;;;;;;9614738;30;20537;-88
2022/09/02 07:20:30;;;;;;;4.70;2.08;;;15.50;99.90;;;;;;9614440;30;20065;-87
2022/09/02 07:25:30;;;;;;;4.88;1.60;;;15.80;99.90;;;;;;9614458;30;20039;-87
2022/09/02 07:30:31;;;;;;;2.45;1.27;;;16.10;99.10;;;;;;9598483;30;20860;-87
2022/09/02 07:35:32;;;;;;;1.45;1.30;;;16.30;95.00;;;;;;9614338;30;20058;-87
2022/09/02 07:40:35;;;;;;;4.93;1.90;;;16.50;94.30;;;;;;9613843;30;20070;-86
2022/09/02 07:45:37;;;;;;;3.20;1.60;;;16.90;97.80;;;;;;9598480;30;20039;-86
2022/09/02 07:50:38;;;;;;;2.17;0.88;;;17.10;92.70;;;;;;9613578;30;20030;-88
2022/09/02 07:55:40;;;;;;;2.10;1.23;;;17.40;95.50;;;;;;9613525;30;20408;-88
2022/09/02 08:00:42;;;;;;;2.28;0.90;;;17.70;95.50;;;;;;9598270;30;20035;-87
2022/09/02 08:05:45;;;;;;;2.67;0.90;;;18.10;91.80;;;;;;9589993;30;20039;-88
2022/09/02 08:10:50;;;;;;;2.35;0.70;;;18.50;92.20;;;;;;9591693;30;20038;-89
2022/09/02 08:15:51;;;;;;;1.48;0.85;;;18.80;89.10;;;;;;9609366;30;20520;-87
2022/09/02 08:20:52;;;;;;;1.40;0.55;;;19.10;87.90;;;;;;9593842;30;20098;-88
2022/09/02 08:25:53;;;;;;;1.60;1.00;;;19.30;87.50;;;;;;9593052;30;20133;-86
2022/09/02 08:30:57;;;;;;;2.97;1.02;;;19.60;81.80;;;;;;9608832;30;20125;-87
2022/09/02 08:36:08;;;;;;;1.67;0.70;;;19.60;79.10;;;;;;9594057;30;20063;-87
2022/09/02 08:41:21;;;;;;;1.55;0.70;;;19.70;78.10;;;;;;9611283;30;20054;-88
2022/09/02 08:46:25;;;;;;;1.75;0.68;;;19.70;76.70;;;;;;9592917;30;20074;-88
2022/09/02 08:51:47;;;;;;;0.82;0.57;;;19.90;79.10;;;;;;9595327;30;20038;-87
2022/09/02 08:56:50;;;;;;;1.33;0.65;;;20.40;73.10;;;;;;9590782;30;20027;-87
2022/09/02 09:02:19;;;;;;;1.15;0.60;;;20.30;75.70;;;;;;9609847;30;20043;-88
2022/09/02 09:07:50;;;;;;;1.70;0.60;;;20.90;73.30;;;;;;9606741;30;20513;-87
2022/09/02 09:13:14;;;;;;;1.65;0.75;;;21.70;73.00;;;;;;9594314;30;20118;-87
2022/09/02 09:18:36;;;;;;;0.85;0.70;;;21.70;65.60;;;;;;9589688;30;20066;-88
2022/09/02 09:23:38;;;;;;;3.15;0.70;;;21.90;70.50;;;;;;9607482;30;20145;-87
2022/09/02 09:28:40;;;;;;;1.50;0.55;;;22.10;66.90;;;;;;9607116;30;20118;-88
2022/09/02 09:33:58;;;;;;;1.58;0.73;;;21.70;68.20;;;;;;9605048;30;20023;-88
2022/09/02 09:39:11;;;;;;;1.75;0.90;;;21.70;66.10;;;;;;9593987;30;20386;-88
2022/09/02 09:44:28;;;;;;;1.55;0.60;;;21.50;66.90;;;;;;9594982;30;20093;-88
2022/09/02 09:49:30;;;;;;;1.33;0.50;;;21.60;66.00;;;;;;9607299;30;20035;-88
2022/09/02 09:54:31;;;;;;;2.22;0.63;;;22.00;63.50;;;;;;9586883;30;20050;-88
2022/09/02 09:59:41;;;;;;;0.82;0.50;;;21.60;63.50;;;;;;9591428;30;20058;-86
2022/09/02 10:04:41;;;;;;;1.77;0.70;;;21.80;63.30;;;;;;9594216;30;20145;-88
2022/09/02 10:09:42;;;;;;;1.58;1.00;;;22.20;68.00;;;;;;9605358;30;20032;-88
2022/09/02 10:14:48;;;;;;;1.00;0.55;;;22.60;64.30;;;;;;9608443;30;20520;-87
2022/09/02 10:20:24;;;;;;;0.80;0.50;;;22.60;60.50;;;;;;9589685;30;20058;-87
2022/09/02 10:25:41;;;;;;;4.75;1.60;;;22.10;62.00;;;;;;9591293;30;20054;-89
2022/09/02 10:30:56;;;;;;;1.27;0.50;;;20.70;62.00;;;;;;9603569;30;20533;-88
2022/09/02 10:36:08;;;;;;;0.75;0.60;;;20.30;65.10;;;;;;9608795;30;20108;-88
2022/09/02 10:41:44;;;;;;;0.60;0.57;;;20.70;63.70;;;;;;9611089;30;20111;-88
2022/09/02 10:47:17;;;;;;;0.90;0.55;;;20.10;63.80;;;;;;9584396;30;20043;-89
2022/09/02 10:52:39;;;;;;;0.90;0.45;;;20.80;67.40;;;;;;9599389;30;20043;-89
2022/09/02 10:58:02;;;;;;;2.05;0.60;;;20.80;64.00;;;;;;9612143;30;20109;-89
2022/09/02 11:03:19;;;;;;;1.10;0.47;;;19.80;64.80;;;;;;9594888;30;20035;-89
2022/09/02 11:08:40;;;;;;;2.72;0.68;;;19.70;66.70;;;;;;9613762;30;20035;-86
2022/09/02 11:14:19;;;;;;;0.70;0.55;;;19.20;64.10;;;;;;9597614;30;20038;-89
2022/09/02 11:19:33;;;;;;;2.95;0.32;;;18.80;67.30;;;;;;9606468;30;20063;-88
2022/09/02 11:24:41;;;;;;;1.33;0.50;;;19.50;65.80;;;;;;9606849;30;20043;-86
2022/09/02 11:29:56;;;;;;;1.60;0.60;;;19.90;63.20;;;;;;9608699;30;20046;-89
2022/09/02 11:34:57;;;;;;;;;;;20.00;68.80;;;;;;9598398;30;20508;-88
2022/09/02 11:40:17;;;;;;;1.25;0.57;;;20.50;63.70;;;;;;9599686;30;19971;-88
2022/09/02 11:45:39;;;;;;;0.65;0.50;;;20.20;63.60;;;;;;9591103;30;20064;-88
2022/09/02 11:51:06;;;;;;;1.17;0.57;;;20.10;66.80;;;;;;9597207;30;20473;-85
2022/09/02 11:56:13;;;;;;;0.65;0.55;;;20.90;63.30;;;;;;9593742;30;20137;-88
2022/09/02 12:01:14;;;;;;;2.83;0.40;;;20.70;62.30;;;;;;9582911;30;20035;-87
2022/09/02 12:06:20;;;;;;;1.23;0.40;;;20.90;61.00;;;;;;9605181;30;20050;-87
2022/09/02 12:11:58;;;;;;;1.23;0.47;;;20.50;61.70;;;;;;9605453;30;20440;-86
2022/09/02 12:17:12;;;;;;;1.05;0.52;;;20.00;62.90;;;;;;9608579;30;20474;-89
2022/09/02 12:22:16;;;;;;;1.03;0.50;;;20.00;67.30;;;;;;9593224;30;20062;-88
2022/09/02 12:27:35;;;;;;;1.02;0.68;;;20.70;66.20;;;;;;9588905;30;20073;-87
2022/09/02 12:32:45;;;;;;;0.60;0.50;;;21.30;64.40;;;;;;9592118;30;20039;-87
2022/09/02 12:37:54;;;;;;;2.47;0.70;;;22.30;67.10;;;;;;9610715;30;20051;-87
2022/09/02 12:48:26;;;;;;;1.13;0.50;;;22.10;57.60;;;;;;9608859;30;20540;-86
2022/09/02 12:53:40;;;;;;;1.40;1.17;;;21.20;57.00;;;;;;9606891;30;20069;-85
2022/09/02 12:58:47;;;;;;;0.90;0.43;;;20.60;60.30;;;;;;9609686;30;20628;-87
2022/09/02 13:04:21;;;;;;;1.00;0.68;;;20.10;61.10;;;;;;9591982;30;20104;-88
2022/09/02 13:09:45;;;;;;;1.65;0.98;;;20.00;63.90;;;;;;9593417;30;20702;-87
2022/09/02 13:14:57;;;;;;;1.00;0.60;;;20.70;63.40;;;;;;9594390;30;20717;-87
2022/09/02 13:20:00;;;;;;;3.05;0.68;;;21.00;59.70;;;;;;9583282;30;20693;-87
2022/09/02 13:25:19;;;;;;;1.25;0.70;;;20.60;59.70;;;;;;9598236;30;20043;-88
2022/09/02 13:30:42;;;;;;;1.23;0.60;;;21.30;62.20;;;;;;9574520;30;20042;-87
2022/09/02 13:35:43;;;;;;;0.60;0.40;;;21.20;57.30;;;;;;9593287;30;20066;-87
2022/09/02 13:40:50;;;;;;;0.82;0.73;;;20.50;59.70;;;;;;9579601;30;20046;-88
2022/09/02 13:45:53;;;;;;;1.88;0.65;;;19.90;60.30;;;;;;9587245;30;20038;-86
2022/09/02 13:50:57;;;;;;;0.88;0.52;;;19.60;62.40;;;;;;9602370;30;20620;-87
2022/09/02 13:56:13;;;;;;;5.15;0.73;;;20.00;61.90;;;;;;9589278;30;20039;-88
2022/09/02 14:01:45;;;;;;;0.73;0.50;;;19.90;61.40;;;;;;9591116;30;20039;-89
2022/09/02 14:07:13;;;;;;;2.60;0.70;;;19.60;61.20;;;;;;9589353;30;20441;-92
2022/09/02 14:18:17;;;;;;;0.57;0.52;;;19.00;64.20;;;;;;9599010;30;20405;-89
2022/09/02 14:23:29;;;;;;;1.08;0.43;;;19.70;62.70;;;;;;9593182;30;20555;-88
2022/09/02 14:35:16;;;;;;;;;;;;;;;;;;;;;
2022/09/02 14:46:26;;;;;;;0.70;0.40;;;19.30;65.60;;;;;;9611657;30;20449;-89
2022/09/02 14:51:54;;;;;;;2.90;0.70;;;19.40;66.70;;;;;;9607192;30;20043;-88
2022/09/02 14:57:19;;;;;;;0.82;0.43;;;19.50;66.40;;;;;;9596064;30;20047;-87
2022/09/02 15:02:33;;;;;;;1.98;0.60;;;19.40;65.00;;;;;;9587223;30;20104;-86
2022/09/02 15:13:35;;;;;;;2.38;1.10;;;18.90;66.50;;;;;;9607540;30;20050;-86
2022/09/02 15:18:36;;;;;;;1.25;0.88;;;18.50;67.90;;;;;;9606100;30;20051;-88
2022/09/02 15:24:15;;;;;;;2.70;1.20;;;18.40;68.10;;;;;;9595679;30;20051;-87
2022/09/02 15:29:17;;;;;;;1.55;0.80;;;18.70;70.20;;;;;;9582479;30;20050;-88
2022/09/02 15:34:20;;;;;;;1.08;0.75;;;18.90;68.10;;;;;;9592738;30;20049;-88
2022/09/02 15:39:25;;;;;;;1.45;0.40;;;18.90;69.30;;;;;;9588227;30;20050;-89
2022/09/02 15:44:27;;;;;;;0.82;0.50;;;18.80;67.50;;;;;;9596602;30;20090;-87
2022/09/02 15:49:59;;;;;;;6.60;0.60;;;18.90;66.00;;;;;;9595411;30;20043;-87
2022/09/02 15:55:01;;;;;;;3.08;0.95;;;19.10;65.40;;;;;;9591736;30;20063;-87
2022/09/02 16:00:16;;;;;;;1.73;0.80;;;19.20;64.80;;;;;;9591834;30;20591;-86
2022/09/02 16:05:17;;;;;;;3.05;1.13;;;19.10;64.90;;;;;;9590738;30;20074;-88
2022/09/02 16:10:35;;;;;;;2.20;0.80;;;18.70;65.60;;;;;;9603891;30;20125;-87
2022/09/02 16:15:39;;;;;;;2.08;0.70;;;18.30;67.30;;;;;;9594060;30;20044;-88
2022/09/02 16:21:00;;;;;;;3.42;1.10;;;18.00;71.90;;;;;;9588617;30;20532;-88
2022/09/02 16:26:14;;;;;;;3.05;0.77;;;17.90;70.60;;;;;;9590880;30;20050;-87
2022/09/02 16:48:18;;;;;;;1.20;1.02;;;17.40;78.70;;;;;;9727135;25;20117;-91
2022/09/02 16:59:08;;;;;;;3.40;0.90;;;16.90;82.90;;;;;;10441512;25;19967;-90
2022/09/02 17:04:12;;;;;;;1.63;1.10;;;16.70;80.70;;;;;;9650680;30;20460;-90
2022/09/02 17:38:28;;;;;;;3.17;1.65;;;16.70;78.70;;;;;;9746722;25;20101;-92
2022/09/02 18:18:06;;;;;;;6.47;2.20;;;16.10;81.80;;;;;;9770385;25;20540;-91
2022/09/02 18:28:45;;;;;;;8.20;2.28;;;15.90;83.40;;;;;;9613649;30;20040;-91
2022/09/02 18:34:20;;;;;;;3.20;1.92;;;15.70;83.70;;;;;;9609172;30;20437;-90
2022/09/02 18:45:59;;;;;;;3.25;2.30;;;15.50;83.90;;;;;;9499984;31;20063;-91
2022/09/02 18:51:50;;;;;;;6.15;2.35;;;15.40;84.20;;;;;;9514025;30;20043;-90
2022/09/02 18:56:59;;;;;;;3.80;2.10;;;15.30;86.30;;;;;;9593551;30;20075;-91
2022/09/02 19:08:56;;;;;;;5.53;2.40;;;15.10;88.70;;;;;;9613042;30;20098;-91
2022/09/02 19:14:24;;;;;;;7.32;2.55;;;14.90;89.80;;;;;;9609843;30;20114;-92
2022/09/02 19:19:28;;;;;;;4.55;2.78;;;14.90;89.60;;;;;;9597211;30;20058;-89
2022/09/02 19:24:34;;;;;;;4.22;2.70;;;14.90;89.20;;;;;;9594619;30;20075;-85
2022/09/02 19:29:48;;;;;;;6.95;2.85;;;14.90;89.10;;;;;;9624113;30;20061;-90
2022/09/02 19:40:38;;;;;;;6.97;2.72;;;15.00;89.50;;;;;;9610449;30;20050;-92
2022/09/02 19:58:07;;;;;;;5.75;3.00;;;14.80;90.90;;;;;;9630411;30;20054;-93
2022/09/02 20:16:00;;;;;;;7.38;3.45;;;14.60;91.40;;;;;;9612661;30;20362;-90
2022/09/02 20:21:01;;;;;;;8.48;4.10;;;14.60;91.30;;;;;;9617870;30;20071;-90
2022/09/02 20:32:13;;;;;;;8.15;3.70;;;14.50;90.90;;;;;;9612687;30;20039;-89
2022/09/02 20:37:40;;;;;;;6.70;3.63;;;14.50;91.20;;;;;;9611271;30;20039;-89
2022/09/02 20:43:06;;;;;;;7.65;3.75;;;14.40;91.40;;;;;;9619824;30;20070;-89
2022/09/02 20:48:52;;;;;;;6.05;3.55;;;14.30;91.70;;;;;;9602074;30;20126;-90
2022/09/02 20:54:06;;;;;;;8.73;3.78;;;14.10;91.40;;;;;;9603210;30;20226;-89
2022/09/02 20:59:22;;;;;;;8.27;3.65;;;14.00;91.40;;;;;;9607688;30;20570;-89
2022/09/02 21:04:40;;;;;;;8.15;4.75;;;13.90;91.70;;;;;;9627864;30;20069;-90
2022/09/02 21:10:08;;;;;;;7.00;3.47;;;13.70;92.10;;;;;;9609850;30;20734;-90
2022/09/02 21:15:24;;;;;;;8.07;3.47;;;13.60;92.30;;;;;;9617551;30;20382;-89
2022/09/02 21:20:35;;;;;;;9.57;3.78;;;13.40;92.50;;;;;;9592725;30;20497;-91
2022/09/02 21:25:51;;;;;;;7.88;3.33;;;13.30;92.80;;;;;;9619510;30;20121;-89
2022/09/02 21:31:04;;;;;;;6.13;3.50;;;13.20;93.10;;;;;;9604065;30;20073;-89
2022/09/02 21:36:05;;;;;;;6.78;3.42;;;13.10;93.50;;;;;;9604079;30;20121;-89
2022/09/02 21:41:41;;;;;;;5.70;3.10;;;13.10;94.00;;;;;;9603968;30;20052;-88
2022/09/02 21:47:02;;;;;;;5.93;3.00;;;13.00;94.50;;;;;;9609753;30;20067;-89
2022/09/02 21:52:32;;;;;;;9.48;3.67;;;13.00;95.00;;;;;;9607334;30;20039;-89
2022/09/02 22:03:40;;;;;;;;;;;13.00;95.00;;;;;;9621541;30;20054;-90
2022/09/02 22:08:57;;;;;;;7.55;3.58;;;13.00;95.10;;;;;;9598156;30;19930;-91
2022/09/02 22:14:08;;;;;;;13.82;4.05;;;12.90;94.90;;;;;;9603008;30;20051;-91
2022/09/02 22:19:09;;;;;;;4.38;2.85;;;12.90;95.00;;;;;;9582275;30;20051;-90
2022/09/02 22:24:10;;;;;;;6.20;3.28;;;12.80;94.60;;;;;;9583426;30;20036;-91
2022/09/02 22:29:27;;;;;;;6.07;2.88;;;12.80;94.70;;;;;;9589427;30;20039;-92
2022/09/02 22:34:32;;;;;;;7.30;3.22;;;12.70;94.60;;;;;;9603248;30;20118;-92
2022/09/02 22:39:36;;;;;;;8.80;3.20;;;12.60;94.40;;;;;;9601128;30;20464;-91
2022/09/02 22:55:56;;;;;;;4.38;2.78;;;12.40;94.40;;;;;;9597503;30;20081;-90
2022/09/02 23:01:24;;;;;;;5.80;2.67;;;12.40;94.50;;;;;;9586832;30;20379;-91
2022/09/02 23:06:28;;;;;;;7.28;3.30;;;12.30;94.70;;;;;;9604201;30;20136;-91
2022/09/02 23:11:34;;;;;;;5.75;3.08;;;12.20;94.90;;;;;;9585752;30;20101;-91
2022/09/02 23:17:02;;;;;;;6.90;2.95;;;12.10;94.80;;;;;;9581239;30;20397;-89
2022/09/02 23:22:16;;;;;;;5.85;3.25;;;12.00;95.20;;;;;;9597021;30;20100;-91
2022/09/02 23:27:33;;;;;;;5.00;2.90;;;12.00;95.30;;;;;;9583946;30;20043;-90
2022/09/02 23:33:24;;;;;;;5.72;2.83;;;11.90;95.30;;;;;;9604575;30;20484;-92
2022/09/02 23:38:58;;;;;;;5.80;2.70;;;11.80;95.80;;;;;;9572855;30;20076;-90
2022/09/02 23:43:58;;;;;;;5.88;2.30;;;11.70;96.40;;;;;;9543347;30;20040;-91
2022/09/02 23:49:28;;;;;;;7.13;3.00;;;11.60;96.20;;;;;;9604764;30;20037;-91
2022/09/02 23:54:51;;;;;;;7.25;2.88;;;11.60;96.30;;;;;;9606906;30;20738;-89
